createdAt,value
2022-10-09T00:00:18.669Z,96778.69
2022-10-09T00:02:47.246Z,96782.16
2022-10-09T00:05:15.571Z,96779.91
2022-10-09T00:07:43.602Z,96776.88
2022-10-09T00:10:11.643Z,96773.81
2022-10-09T00:12:39.686Z,96781.00
2022-10-09T00:15:10.349Z,96782.22
2022-10-09T00:17:38.375Z,96782.63
2022-10-09T00:20:07.424Z,96770.00
2022-10-09T00:22:35.501Z,96771.84
2022-10-09T00:25:03.542Z,96776.53
2022-10-09T00:27:31.605Z,96770.63
2022-10-09T00:29:59.648Z,96772.44
2022-10-09T00:32:29.049Z,96774.72
2022-10-09T00:34:57.332Z,96782.06
2022-10-09T00:37:25.349Z,96773.91
2022-10-09T00:39:53.413Z,96771.44
2022-10-09T00:42:21.522Z,96770.63
2022-10-09T00:44:52.759Z,96767.16
2022-10-09T00:47:24.233Z,96770.03
2022-10-09T00:49:54.907Z,96772.88
2022-10-09T00:52:23.281Z,96772.91
2022-10-09T00:54:51.336Z,96773.50
2022-10-09T00:57:19.377Z,96767.22
2022-10-09T00:59:47.376Z,96769.06
2022-10-09T01:02:15.757Z,96770.91
2022-10-09T01:04:43.880Z,96765.38
2022-10-09T01:07:26.027Z,96768.84
2022-10-09T01:09:57.231Z,96768.84
2022-10-09T01:12:31.052Z,96771.13
2022-10-09T01:15:02.513Z,96770.91
2022-10-09T01:17:34.442Z,96767.84
2022-10-09T01:20:19.417Z,96768.88
2022-10-09T01:22:55.448Z,96765.81
2022-10-09T01:25:26.664Z,96760.94
2022-10-09T01:27:56.080Z,96771.72
2022-10-09T01:30:24.434Z,96770.09
2022-10-09T01:32:53.125Z,96769.69
2022-10-09T01:35:21.177Z,96768.66
2022-10-09T01:37:49.264Z,96771.09
2022-10-09T01:40:17.573Z,96772.75
2022-10-09T01:42:47.323Z,96767.84
2022-10-09T01:45:17.148Z,96775.78
2022-10-09T01:47:45.203Z,96776.78
2022-10-09T01:50:17.111Z,96776.59
2022-10-09T01:52:47.535Z,96778.25
2022-10-09T01:55:25.114Z,96779.06
2022-10-09T01:57:54.196Z,96789.63
2022-10-09T02:00:23.687Z,96788.41
2022-10-09T02:02:52.361Z,96783.09
2022-10-09T02:05:22.359Z,96794.50
2022-10-09T02:07:50.464Z,96779.03
2022-10-09T02:10:18.909Z,96786.38
2022-10-09T02:12:48.378Z,96787.16
2022-10-09T02:15:16.789Z,96790.00
2022-10-09T02:17:47.715Z,96789.81
2022-10-09T02:20:18.079Z,96790.63
2022-10-09T02:22:46.358Z,96792.25
2022-10-09T02:25:14.906Z,96789.63
2022-10-09T02:27:42.961Z,96792.47
2022-10-09T02:30:11.358Z,96784.50
2022-10-09T02:32:39.969Z,96790.00
2022-10-09T02:35:09.975Z,96791.84
2022-10-09T02:37:38.286Z,96794.66
2022-10-09T02:40:10.689Z,96794.25
2022-10-09T02:42:39.077Z,96795.88
2022-10-09T02:45:08.788Z,96796.50
2022-10-09T02:47:36.812Z,96796.50
2022-10-09T02:50:05.820Z,96792.03
2022-10-09T02:52:35.216Z,96786.53
2022-10-09T02:55:03.253Z,96790.00
2022-10-09T02:57:32.478Z,96794.47
2022-10-09T03:00:00.650Z,96801.41
2022-10-09T03:02:28.837Z,96793.66
2022-10-09T03:04:57.285Z,96794.03
2022-10-09T03:07:25.396Z,96795.69
2022-10-09T03:09:54.881Z,96793.22
2022-10-09T03:12:22.923Z,96799.72
2022-10-09T03:14:50.937Z,96798.28
2022-10-09T03:17:19.308Z,96798.09
2022-10-09T03:19:47.333Z,96792.59
2022-10-09T03:22:15.389Z,96793.00
2022-10-09T03:24:43.402Z,96790.56
2022-10-09T03:27:13.135Z,96794.41
2022-10-09T03:29:41.317Z,96798.06
2022-10-09T03:32:09.737Z,96798.28
2022-10-09T03:34:37.757Z,96791.53
2022-10-09T03:37:05.789Z,96801.72
2022-10-09T03:39:33.846Z,96797.81
2022-10-09T03:42:01.853Z,96799.84
2022-10-09T03:44:31.581Z,96799.66
2022-10-09T03:46:59.706Z,96806.16
2022-10-09T03:49:27.720Z,96805.38
2022-10-09T03:51:55.764Z,96806.56
2022-10-09T03:54:23.793Z,96801.84
2022-10-09T03:56:51.940Z,96803.88
2022-10-09T03:59:20.259Z,96810.38
2022-10-09T04:01:49.694Z,96806.94
2022-10-09T04:04:17.921Z,96797.38
2022-10-09T04:06:45.976Z,96809.56
2022-10-09T04:09:13.991Z,96801.84
2022-10-09T04:11:42.033Z,96810.97
2022-10-09T04:14:10.823Z,96816.84
2022-10-09T04:16:38.946Z,96809.13
2022-10-09T04:19:08.457Z,96808.75
2022-10-09T04:21:36.554Z,96808.13
2022-10-09T04:24:08.300Z,96812.78
2022-10-09T04:26:36.721Z,96816.63
2022-10-09T04:29:04.741Z,96812.16
2022-10-09T04:31:32.830Z,96808.69
2022-10-09T04:34:00.948Z,96812.34
2022-10-09T04:36:30.356Z,96807.66
2022-10-09T04:38:58.441Z,96805.00
2022-10-09T04:41:26.873Z,96797.47
2022-10-09T04:43:55.991Z,96805.19
2022-10-09T04:46:24.189Z,96807.84
2022-10-09T04:48:52.245Z,96800.31
2022-10-09T04:51:20.343Z,96801.13
2022-10-09T04:53:50.082Z,96797.84
2022-10-09T04:56:18.976Z,96806.19
2022-10-09T04:58:47.238Z,96805.56
2022-10-09T05:01:16.806Z,96803.31
2022-10-09T05:03:44.912Z,96800.84
2022-10-09T05:06:13.526Z,96801.88
2022-10-09T05:08:42.433Z,96802.69
2022-10-09T05:11:12.802Z,96803.72
2022-10-09T05:13:41.751Z,96811.00
2022-10-09T05:16:10.544Z,96814.66
2022-10-09T05:18:43.126Z,96811.38
2022-10-09T05:21:11.527Z,96812.59
2022-10-09T05:23:40.014Z,96814.22
2022-10-09T05:26:08.672Z,96827.22
2022-10-09T05:28:38.154Z,96830.25
2022-10-09T05:31:06.423Z,96832.09
2022-10-09T05:33:34.795Z,96831.88
2022-10-09T05:36:03.873Z,96830.69
2022-10-09T05:38:32.967Z,96827.22
2022-10-09T05:41:02.017Z,96829.88
2022-10-09T05:43:30.960Z,96828.06
2022-10-09T05:46:08.077Z,96833.16
2022-10-09T05:48:36.538Z,96833.78
2022-10-09T05:51:09.282Z,96822.78
2022-10-09T05:53:37.345Z,96828.91
2022-10-09T05:56:13.052Z,96826.50
2022-10-09T05:58:41.161Z,96824.72
2022-10-09T06:01:10.979Z,96830.84
2022-10-09T06:03:39.150Z,96829.06
2022-10-09T06:06:08.488Z,96835.00
2022-10-09T06:08:37.054Z,96829.72
2022-10-09T06:11:12.908Z,96837.28
2022-10-09T06:13:40.980Z,96842.22
2022-10-09T06:16:11.757Z,96839.59
2022-10-09T06:18:39.875Z,96839.41
2022-10-09T06:21:07.913Z,96839.84
2022-10-09T06:23:36.137Z,96834.59
2022-10-09T06:26:05.495Z,96841.09
2022-10-09T06:28:34.429Z,96837.66
2022-10-09T06:31:03.770Z,96835.84
2022-10-09T06:33:34.023Z,96839.72
2022-10-09T06:36:09.743Z,96830.56
2022-10-09T06:38:38.557Z,96837.91
2022-10-09T06:41:07.229Z,96833.03
2022-10-09T06:43:35.714Z,96834.84
2022-10-09T06:46:04.205Z,96839.94
2022-10-09T06:48:34.480Z,96834.22
2022-10-09T06:51:03.134Z,96838.91
2022-10-09T06:53:31.238Z,96840.72
2022-10-09T06:55:59.519Z,96841.72
2022-10-09T06:58:27.607Z,96840.06
2022-10-09T07:01:04.812Z,96839.78
2022-10-09T07:03:34.401Z,96840.75
2022-10-09T07:06:09.807Z,96835.63
2022-10-09T07:08:37.949Z,96840.03
2022-10-09T07:11:10.552Z,96831.78
2022-10-09T07:13:38.781Z,96846.84
2022-10-09T07:16:07.403Z,96845.13
2022-10-09T07:18:37.005Z,96847.72
2022-10-09T07:21:05.354Z,96842.53
2022-10-09T07:23:33.835Z,96849.56
2022-10-09T07:26:02.165Z,96847.25
2022-10-09T07:28:30.817Z,96847.75
2022-10-09T07:30:59.031Z,96843.72
2022-10-09T07:33:27.150Z,96850.53
2022-10-09T07:35:56.853Z,96848.31
2022-10-09T07:38:25.530Z,96842.91
2022-10-09T07:40:53.576Z,96850.38
2022-10-09T07:43:22.342Z,96850.69
2022-10-09T07:45:50.461Z,96852.25
2022-10-09T07:48:18.527Z,96858.91
2022-10-09T07:50:46.892Z,96850.38
2022-10-09T07:53:16.398Z,96848.13
2022-10-09T07:55:45.951Z,96850.69
2022-10-09T07:58:14.147Z,96847.97
2022-10-09T08:00:42.246Z,96854.13
2022-10-09T08:03:10.415Z,96853.34
2022-10-09T08:05:38.795Z,96849.69
2022-10-09T08:08:06.899Z,96854.81
2022-10-09T08:10:36.326Z,96858.31
2022-10-09T08:13:04.555Z,96864.16
2022-10-09T08:15:32.653Z,96859.41
2022-10-09T08:18:01.038Z,96864.53
2022-10-09T08:20:29.490Z,96863.25
2022-10-09T08:22:57.613Z,96857.91
2022-10-09T08:25:25.727Z,96866.97
2022-10-09T08:27:55.233Z,96859.78
2022-10-09T08:30:23.371Z,96859.41
2022-10-09T08:32:52.092Z,96866.81
2022-10-09T08:35:20.214Z,96868.97
2022-10-09T08:37:48.224Z,96860.06
2022-10-09T08:40:17.193Z,96863.81
2022-10-09T08:42:49.263Z,96860.94
2022-10-09T08:45:19.372Z,96867.31
2022-10-09T08:47:48.474Z,96869.47
2022-10-09T08:50:18.468Z,96863.88
2022-10-09T08:52:50.178Z,96872.28
2022-10-09T08:55:21.033Z,96864.66
2022-10-09T08:57:51.441Z,96872.59
2022-10-09T09:00:22.671Z,96865.72
2022-10-09T09:03:25.010Z,96862.19
2022-10-09T09:05:55.683Z,96858.31
2022-10-09T09:08:27.464Z,96860.38
2022-10-09T09:10:58.833Z,96858.78
2022-10-09T09:13:47.157Z,96848.09
2022-10-09T09:16:20.671Z,96854.53
2022-10-09T09:18:52.468Z,96848.75
2022-10-09T09:21:27.477Z,96855.28
2022-10-09T09:23:55.533Z,96856.41
2022-10-09T09:26:23.887Z,96852.53
2022-10-09T09:28:53.613Z,96848.09
2022-10-09T09:31:25.017Z,96845.22
2022-10-09T09:33:56.448Z,96849.38
2022-10-09T09:36:25.649Z,96850.44
2022-10-09T09:39:35.429Z,96847.84
2022-10-09T09:41:42.869Z,96848.13
2022-10-09T09:44:11.397Z,96851.16
2022-10-09T09:46:41.207Z,96853.59
2022-10-09T09:49:19.217Z,96849.56
2022-10-09T09:51:47.413Z,96850.88
2022-10-09T09:54:17.794Z,96842.72
2022-10-09T09:59:34.989Z,96832.34
2022-10-09T10:02:13.559Z,96832.59
2022-10-09T10:04:50.594Z,96820.88
2022-10-09T10:07:34.272Z,96825.69
2022-10-09T10:10:08.760Z,96826.91
2022-10-09T10:12:46.437Z,96824.47
2022-10-09T10:15:25.454Z,96819.47
2022-10-09T10:18:10.032Z,96812.63
2022-10-09T10:20:44.457Z,96809.81
2022-10-09T10:23:23.663Z,96802.78
2022-10-09T10:29:46.024Z,96804.69
2022-10-09T10:32:16.184Z,96794.53
2022-10-09T10:34:49.614Z,96804.91
2022-10-09T10:37:35.831Z,96793.00
2022-10-09T10:40:17.316Z,96787.69
2022-10-09T10:42:48.256Z,96787.88
2022-10-09T10:45:29.528Z,96783.97
2022-10-09T10:48:00.003Z,96782.56
2022-10-09T10:50:37.497Z,96783.16
2022-10-09T10:53:14.127Z,96780.44
2022-10-09T10:55:48.726Z,96777.66
2022-10-09T10:58:25.796Z,96777.50
2022-10-09T11:01:03.457Z,96772.03
2022-10-09T11:03:38.118Z,96774.13
2022-10-09T11:06:12.549Z,96769.91
2022-10-09T11:08:52.968Z,96771.75
2022-10-09T11:11:42.757Z,96761.63
2022-10-09T11:14:25.890Z,96764.91
2022-10-09T11:17:03.595Z,96760.63
2022-10-09T11:19:48.037Z,96750.44
2022-10-09T11:22:27.613Z,96751.81
2022-10-09T11:25:04.540Z,96745.31
2022-10-09T11:34:38.622Z,96732.28
2022-10-09T11:37:08.751Z,96730.97
2022-10-09T11:39:38.775Z,96728.09
2022-10-09T11:42:07.660Z,96716.59
2022-10-09T11:44:42.604Z,96718.03
2022-10-09T11:47:15.566Z,96714.81
2022-10-09T11:50:14.419Z,96713.44
2022-10-09T11:52:45.247Z,96703.19
2022-10-09T11:55:25.679Z,96699.66
2022-10-09T11:57:54.594Z,96691.41
2022-10-09T12:00:30.825Z,96687.22
2022-10-09T12:03:09.360Z,96680.50
2022-10-09T12:05:41.315Z,96674.38
2022-10-09T12:08:34.709Z,96680.41
2022-10-09T12:11:16.531Z,96668.72
2022-10-09T12:14:07.250Z,96663.41
2022-10-09T12:17:35.490Z,96663.19
2022-10-09T12:20:19.932Z,96658.19
2022-10-09T12:23:25.670Z,96656.13
2022-10-09T12:26:24.947Z,96651.75
2022-10-09T12:29:43.219Z,96650.09
2022-10-09T12:32:31.878Z,96644.16
2022-10-09T12:35:05.325Z,96636.56
2022-10-09T12:37:57.929Z,96631.38
2022-10-09T12:40:39.074Z,96628.84
2022-10-09T12:43:14.282Z,96618.66
2022-10-09T12:45:46.930Z,96617.03
2022-10-09T12:48:29.258Z,96608.13
2022-10-09T12:50:58.883Z,96616.81
2022-10-09T12:53:27.737Z,96609.81
2022-10-09T12:56:01.360Z,96608.50
2022-10-09T12:58:32.900Z,96608.19
2022-10-09T13:01:03.350Z,96606.91
2022-10-09T13:03:35.783Z,96600.75
2022-10-09T13:06:03.949Z,96599.78
2022-10-09T13:08:34.870Z,96597.13
2022-10-09T13:11:10.484Z,96593.88
2022-10-09T13:13:40.414Z,96583.41
2022-10-09T13:16:09.582Z,96583.16
2022-10-09T13:18:37.733Z,96576.94
2022-10-09T13:21:07.339Z,96573.72
2022-10-09T13:23:36.236Z,96576.72
2022-10-09T13:26:06.119Z,96568.06
2022-10-09T13:28:34.508Z,96565.94
2022-10-09T13:31:10.105Z,96557.59
2022-10-09T13:33:38.288Z,96568.13
2022-10-09T13:36:06.864Z,96560.84
2022-10-09T13:41:22.286Z,96561.66
2022-10-09T13:43:51.117Z,96554.38
2022-10-09T13:46:20.779Z,96553.03
2022-10-09T13:48:48.988Z,96550.06
2022-10-09T13:51:17.179Z,96548.44
2022-10-09T13:53:45.540Z,96543.88
2022-10-09T13:56:13.629Z,96540.38
2022-10-09T13:58:41.722Z,96542.00
2022-10-09T14:01:10.090Z,96534.97
2022-10-09T14:03:40.477Z,96529.06
2022-10-09T14:06:08.928Z,96534.97
2022-10-09T14:08:38.416Z,96529.06
2022-10-09T14:11:10.432Z,96531.25
2022-10-09T14:13:39.907Z,96527.75
2022-10-09T14:16:08.579Z,96526.66
2022-10-09T14:18:43.252Z,96521.56
2022-10-09T14:21:22.305Z,96526.41
2022-10-09T14:23:59.747Z,96522.63
2022-10-09T14:26:30.416Z,96518.63
2022-10-09T14:29:00.091Z,96513.53
2022-10-09T14:31:28.284Z,96516.50
2022-10-09T14:33:57.484Z,96517.09
2022-10-09T14:36:27.345Z,96510.38
2022-10-09T14:38:55.436Z,96503.16
2022-10-09T14:41:23.569Z,96496.94
2022-10-09T14:43:56.794Z,96511.50
2022-10-09T14:46:25.093Z,96500.47
2022-10-09T14:48:55.037Z,96505.88
2022-10-09T14:51:23.967Z,96494.56
2022-10-09T14:53:56.553Z,96498.38
2022-10-09T14:56:24.782Z,96496.75
2022-10-09T14:58:52.887Z,96496.22
2022-10-09T15:01:22.477Z,96490.53
2022-10-09T15:03:50.650Z,96490.53
2022-10-09T15:06:23.798Z,96481.94
2022-10-09T15:08:55.485Z,96476.28
2022-10-09T15:11:24.004Z,96476.78
2022-10-09T15:13:59.102Z,96479.75
2022-10-09T15:16:27.199Z,96487.25
2022-10-09T15:18:55.896Z,96489.66
2022-10-09T15:21:25.192Z,96494.19
2022-10-09T15:23:55.906Z,96489.88
2022-10-09T15:26:24.322Z,96487.97
2022-10-09T15:28:52.472Z,96486.06
2022-10-09T15:31:23.407Z,96481.75
2022-10-09T15:33:51.918Z,96483.38
2022-10-09T15:36:20.163Z,96483.59
2022-10-09T15:38:48.353Z,96469.31
2022-10-09T15:41:25.847Z,96468.75
2022-10-09T15:43:55.392Z,96468.63
2022-10-09T15:46:23.584Z,96472.56
2022-10-09T15:48:51.756Z,96466.38
2022-10-09T15:51:20.002Z,96466.81
2022-10-09T15:53:50.028Z,96461.41
2022-10-09T15:56:20.615Z,96473.66
2022-10-09T15:58:50.301Z,96466.91
2022-10-09T16:01:18.707Z,96467.38
2022-10-09T16:11:01.600Z,96458.81
2022-10-09T16:13:29.719Z,96459.78
2022-10-09T16:15:59.846Z,96461.81
2022-10-09T16:18:28.180Z,96458.28
2022-10-09T16:21:34.454Z,96448.63
2022-10-09T16:24:50.468Z,96448.53
2022-10-09T16:27:44.849Z,96450.94
2022-10-09T16:30:14.307Z,96442.56
2022-10-09T16:32:43.911Z,96445.13
2022-10-09T16:35:12.030Z,96441.28
2022-10-09T16:37:40.517Z,96444.41
2022-10-09T16:40:09.188Z,96447.28
2022-10-09T16:42:37.250Z,96447.41
2022-10-09T16:45:05.925Z,96446.94
2022-10-09T16:47:34.113Z,96449.94
2022-10-09T16:50:04.017Z,96456.91
2022-10-09T16:52:32.090Z,96456.38
2022-10-09T16:55:00.725Z,96450.75
2022-10-09T16:57:28.909Z,96454.16
2022-10-09T16:59:57.121Z,96445.31
2022-10-09T17:02:25.765Z,96452.16
2022-10-09T17:04:54.263Z,96443.53
2022-10-09T17:07:24.666Z,96447.72
2022-10-09T17:09:53.046Z,96443.63
2022-10-09T17:12:27.249Z,96439.84
2022-10-09T17:15:00.665Z,96436.84
2022-10-09T17:17:29.103Z,96438.88
2022-10-09T17:19:57.739Z,96438.97
2022-10-09T17:22:27.333Z,96440.19
2022-10-09T17:24:56.210Z,96439.44
2022-10-09T17:27:24.364Z,96442.94
2022-10-09T17:29:52.725Z,96439.38
2022-10-09T17:32:21.183Z,96438.00
2022-10-09T17:34:49.435Z,96433.31
2022-10-09T17:37:17.693Z,96436.06
2022-10-09T17:39:51.859Z,96434.28
2022-10-09T17:42:20.622Z,96435.19
2022-10-09T17:44:49.056Z,96428.72
2022-10-09T17:47:17.166Z,96425.63
2022-10-09T17:49:45.366Z,96415.19
2022-10-09T17:52:13.491Z,96411.88
2022-10-09T17:54:41.619Z,96418.94
2022-10-09T17:57:12.564Z,96421.53
2022-10-09T17:59:40.793Z,96415.28
2022-10-09T18:02:11.440Z,96414.16
2022-10-09T18:04:39.590Z,96411.16
2022-10-09T18:07:07.871Z,96411.31
2022-10-09T18:09:36.111Z,96403.59
2022-10-09T18:12:04.365Z,96402.56
2022-10-09T18:14:34.871Z,96411.66
2022-10-09T18:17:02.929Z,96406.47
2022-10-09T18:19:31.064Z,96406.38
2022-10-09T18:21:59.195Z,96404.09
2022-10-09T18:24:27.366Z,96397.13
2022-10-09T18:26:55.793Z,96394.69
2022-10-09T18:29:23.859Z,96398.63
2022-10-09T18:31:55.747Z,96396.19
2022-10-09T18:34:23.814Z,96394.94
2022-10-09T18:36:52.360Z,96391.03
2022-10-09T18:39:21.611Z,96377.13
2022-10-09T18:41:49.633Z,96384.88
2022-10-09T18:44:18.594Z,96378.06
2022-10-09T18:46:47.790Z,96376.09
2022-10-09T18:49:18.423Z,96372.84
2022-10-09T18:51:46.796Z,96374.81
2022-10-09T18:54:18.104Z,96375.19
2022-10-09T18:56:46.328Z,96362.34
2022-10-09T18:59:15.479Z,96361.97
2022-10-09T19:01:43.601Z,96359.59
2022-10-09T19:04:11.685Z,96342.47
2022-10-09T19:06:41.458Z,96349.03
2022-10-09T19:09:09.549Z,96344.69
2022-10-09T19:11:37.708Z,96345.94
2022-10-09T19:14:05.811Z,96343.06
2022-10-09T19:16:34.493Z,96335.41
2022-10-09T19:19:02.922Z,96336.09
2022-10-09T19:21:33.725Z,96325.75
2022-10-09T19:24:06.183Z,96327.56
2022-10-09T19:26:35.359Z,96321.03
2022-10-09T19:29:03.561Z,96329.63
2022-10-09T19:31:32.382Z,96329.63
2022-10-09T19:34:00.858Z,96323.25
2022-10-09T19:36:33.128Z,96325.34
2022-10-09T19:39:02.813Z,96332.06
2022-10-09T19:41:30.910Z,96322.84
2022-10-09T19:43:59.664Z,96327.59
2022-10-09T19:46:28.140Z,96327.59
2022-10-09T19:48:56.230Z,96318.03
2022-10-09T19:51:25.261Z,96325.00
2022-10-09T19:53:54.816Z,96313.75
2022-10-09T19:56:26.233Z,96314.81
2022-10-09T19:58:54.912Z,96314.94
2022-10-09T20:01:24.731Z,96311.59
2022-10-09T20:03:55.055Z,96305.50
2022-10-09T20:06:23.148Z,96303.28
2022-10-09T20:08:51.448Z,96303.28
2022-10-09T20:11:20.701Z,96297.63
2022-10-09T20:13:55.559Z,96295.09
2022-10-09T20:16:24.472Z,96289.63
2022-10-09T20:18:52.525Z,96288.00
2022-10-09T20:21:20.613Z,96287.56
2022-10-09T20:23:49.304Z,96290.00
2022-10-09T20:26:18.378Z,96282.69
2022-10-09T20:28:46.603Z,96280.41
2022-10-09T20:31:18.198Z,96277.16
2022-10-09T20:33:46.689Z,96272.41
2022-10-09T20:36:19.616Z,96271.38
2022-10-09T20:38:47.784Z,96256.91
2022-10-09T20:41:16.141Z,96262.59
2022-10-09T20:43:44.217Z,96259.06
2022-10-09T20:46:13.534Z,96257.88
2022-10-09T20:48:43.381Z,96260.25
2022-10-09T20:51:11.499Z,96256.63
2022-10-09T20:53:39.860Z,96254.03
2022-10-09T20:56:09.749Z,96249.50
2022-10-09T20:58:37.977Z,96251.63
2022-10-09T21:01:07.103Z,96239.38
2022-10-09T21:03:35.231Z,96228.13
2022-10-09T21:06:05.564Z,96238.13
2022-10-09T21:08:33.948Z,96236.53
2022-10-09T21:11:02.045Z,96236.34
2022-10-09T21:13:30.190Z,96235.75
2022-10-09T21:15:58.179Z,96226.19
2022-10-09T21:18:26.243Z,96233.72
2022-10-09T21:20:54.628Z,96230.31
2022-10-09T21:23:24.045Z,96228.34
2022-10-09T21:25:52.989Z,96237.69
2022-10-09T21:28:21.779Z,96232.09
2022-10-09T21:30:49.872Z,96227.53
2022-10-09T21:33:18.301Z,96227.34
2022-10-09T21:35:47.163Z,96224.66
2022-10-09T21:38:17.068Z,96231.72
2022-10-09T21:40:46.570Z,96231.91
2022-10-09T21:43:14.641Z,96222.97
2022-10-09T21:45:42.795Z,96220.47
2022-10-09T21:48:11.593Z,96217.38
2022-10-09T21:50:39.701Z,96210.44
2022-10-09T21:53:07.747Z,96209.31
2022-10-09T21:55:35.743Z,96210.59
2022-10-09T21:58:05.245Z,96206.47
2022-10-09T22:00:33.592Z,96211.28
2022-10-09T22:03:01.664Z,96212.09
2022-10-09T22:05:29.696Z,96203.47
2022-10-09T22:07:57.707Z,96206.81
2022-10-09T22:10:25.788Z,96199.19
2022-10-09T22:12:53.878Z,96201.53
2022-10-09T22:15:23.643Z,96199.38
2022-10-09T22:17:51.686Z,96193.66
2022-10-09T22:20:19.930Z,96198.66
2022-10-09T22:22:48.328Z,96190.91
2022-10-09T22:25:16.702Z,96200.09
2022-10-09T22:27:44.801Z,96197.03
2022-10-09T22:30:13.947Z,96199.63
2022-10-09T22:32:43.435Z,96185.53
2022-10-09T22:35:11.509Z,96182.41
2022-10-09T22:37:39.546Z,96181.16
2022-10-09T22:40:08.356Z,96184.25
2022-10-09T22:42:36.764Z,96189.25
2022-10-09T22:45:05.122Z,96175.88
2022-10-09T22:47:33.124Z,96172.84
2022-10-09T22:50:02.605Z,96179.91
2022-10-09T22:52:30.712Z,96169.56
2022-10-09T22:55:00.604Z,96174.28
2022-10-09T22:57:28.980Z,96170.75
2022-10-09T22:59:56.951Z,96178.56
2022-10-09T23:02:24.980Z,96181.09
2022-10-09T23:04:53.069Z,96171.22
2022-10-09T23:07:22.474Z,96170.41
2022-10-09T23:09:50.872Z,96168.19
2022-10-09T23:12:18.975Z,96158.06
2022-10-09T23:14:47.069Z,96156.22
2022-10-09T23:17:15.173Z,96153.25
2022-10-09T23:19:43.222Z,96157.06
2022-10-09T23:22:11.265Z,96152.84
2022-10-09T23:24:41.021Z,96143.94
2022-10-09T23:27:09.044Z,96144.56
2022-10-09T23:29:37.044Z,96133.06
2022-10-09T23:32:05.084Z,96131.63
2022-10-09T23:34:33.081Z,96133.41
2022-10-09T23:37:01.375Z,96125.72
2022-10-09T23:39:29.539Z,96131.63
2022-10-09T23:41:58.918Z,96123.97
2022-10-09T23:44:27.010Z,96113.72
2022-10-09T23:46:55.004Z,96119.88
2022-10-09T23:49:23.075Z,96109.75
2022-10-09T23:51:51.376Z,96104.72
2022-10-09T23:54:19.957Z,96101.78
2022-10-09T23:56:48.028Z,96114.31
2022-10-09T23:59:17.430Z,96113.25
